SUSQUEDA - VEÏNAT DEL COLL (La Selva)





Hora UTC 16:20
Temperatura 8.4 ºC
Humitat 97.8 %
Pressió 1012.6 hPa
Pluja 0.0 mm
Velocitat vent 11.2 km/h
Direcció vent ESE
Radiació solar 59.6 W/m²

Dades diàries 2024-04-16



Hora UTC (hivern +1h; estiu +2h)
Temperatura (ºC) Humitat (%) Pressió (hPa) Velocitat vent (km/h) Precipitació (mm) Radiació solar (W/m²)
Hora UTC Aire Humitat Pressió Vel. Dir. Vel. Max Dir. Intent. màx 5 min. Rad. Sol.
00:05 9.1 79.8 1017.6 0.2 SW 0.2 SW 0.0 0.1
00:10 9.0 79.9 1017.6 1.5 WNW 4.6 NW 0.0 0.2
00:15 9.0 80.1 1017.5 1.5 WSW 2.8 WSW 0.0 0.2
00:20 9.0 79.2 1017.5 1.5 WNW 3.5 NW 0.0 0.2
00:25 9.1 79.8 1017.4 0.8 WNW 2.5 WNW 0.0 0.2
00:30 9.2 79.7 1017.4 2.3 NW 3.5 NNW 0.0 0.1
00:35 9.2 78.9 1017.4 0.5 N 3.5 NNW 0.0 0.2
00:40 9.0 79.8 1017.4 0.3 E 2.8 ENE 0.0 0.2
00:45 8.8 79.5 1017.2 0.6 WNW 2.8 WSW 0.0 0.2
00:50 8.7 79.8 1017.2 0.2 SE 2.1 SSE 0.0 0.2
00:55 8.4 83.1 1017.1 1.7 SE 3.5 ESE 0.0 0.2
01:00 8.2 84.8 1017.1 1.4 SE 3.5 SE 0.0 0.1
01:05 8.0 84.1 1016.9 0.4 WSW 2.1 NE 0.0 0.1
01:10 8.0 84.5 1016.9 0.0 NNE 1.8 NNE 0.0 0.2
01:15 8.0 84.6 1016.8 0.2 NW 2.1 NW 0.0 0.1
01:20 7.9 85.3 1016.8 0.4 NNW 3.5 NNW 0.0 0.1
01:25 7.9 85.0 1016.7 0.4 WNW 1.8 W 0.0 0.1
01:30 7.6 85.8 1016.7 0.0 NNE 0.0 SW 0.0 0.1
01:35 7.5 87.2 1016.6 0.2 N 2.5 N 0.0 0.2
01:40 7.4 88.2 1016.6 0.2 S 2.1 S 0.0 0.1
01:45 7.6 88.0 1016.5 0.1 SSE 1.1 SE 0.0 0.1
01:50 7.7 87.5 1016.5 0.0 NNW 1.1 NNW 0.0 0.1
01:55 7.7 87.2 1016.4 0.4 NW 2.5 NNW 0.0 0.2
02:00 7.4 87.6 1016.4 0.8 WNW 3.5 NNW 0.0 0.2
02:05 7.3 89.7 1016.3 0.4 W 2.1 W 0.0 0.2
02:10 7.2 89.6 1016.3 1.0 SSW 3.2 S 0.0 0.1
02:15 7.2 89.1 1016.2 0.2 ESE 1.8 SSE 0.0 0.2
02:20 7.0 90.4 1016.2 0.5 NW 4.2 WNW 0.0 0.2
02:25 7.2 89.7 1016.1 1.2 SSW 7.1 WNW 0.0 0.1
02:30 7.2 90.4 1016.1 2.4 SSW 6.7 SSW 0.0 0.1
02:35 7.3 89.6 1015.9 1.6 WSW 5.6 SW 0.0 0.1
02:40 7.3 90.1 1015.9 1.0 W 4.9 SW 0.0 0.2
02:45 7.2 90.0 1015.9 0.3 N 3.5 NE 0.0 0.1
02:50 7.1 90.5 1015.9 0.7 S 3.5 W 0.0 0.1
02:55 6.9 91.2 1015.8 0.3 SW 2.5 W 0.0 0.2
03:00 6.8 92.0 1015.8 0.2 SSW 2.1 S 0.0 0.2
03:05 6.7 92.4 1015.9 0.6 SE 4.2 E 0.0 0.1
03:10 6.8 93.6 1015.9 2.0 SSW 4.2 SSE 0.0 0.1
03:15 6.7 93.0 1015.9 3.2 WSW 7.8 WNW 0.0 0.2
03:20 6.9 92.6 1015.9 4.1 SW 8.5 WSW 0.0 0.2
03:25 6.9 91.6 1015.7 3.3 WSW 9.2 W 0.0 0.1
03:30 7.0 92.5 1015.7 2.9 SSW 8.8 S 0.0 0.1
03:35 7.0 92.2 1015.7 2.6 SSW 7.4 SW 0.0 0.2
03:40 7.0 92.4 1015.7 3.1 SW 7.8 SW 0.0 0.2
03:45 6.9 93.2 1015.5 4.7 SW 12.0 SW 0.0 0.2
03:50 7.0 93.4 1015.5 7.2 SW 13.1 SW 0.0 0.1
03:55 7.2 91.7 1015.2 6.4 SW 12.7 SSW 0.0 0.2
04:00 7.1 90.3 1015.2 4.7 SW 10.9 SSW 0.0 0.2
04:05 7.0 90.0 1015.2 0.7 WNW 4.9 SSW 0.0 0.1
04:10 7.1 91.9 1015.2 1.1 E 3.9 ENE 0.0 0.2
04:15 7.0 90.7 1015.1 1.3 NW 3.5 NNW 0.0 0.1
04:20 6.9 91.5 1015.1 1.7 NNW 4.2 S 0.0 0.2
04:25 6.7 89.4 1015.1 1.8 WNW 4.2 NW 0.0 0.2
04:30 6.5 90.4 1015.1 1.2 SW 7.8 SSW 0.0 0.1
04:35 6.2 90.7 1015.1 5.2 SW 10.2 SSW 0.0 0.1
04:40 6.1 92.0 1015.1 4.4 WSW 8.5 WSW 0.0 0.1
04:45 6.2 91.8 1014.9 3.8 WSW 8.5 WSW 0.0 0.2
04:50 6.0 92.5 1014.9 3.6 WSW 8.5 SW 0.0 0.3
04:55 6.1 92.9 1015.1 4.2 WSW 9.5 W 0.0 0.7
05:00 6.1 93.8 1015.1 6.6 WSW 13.8 SSW 0.0 1.6
05:05 6.1 93.1 1015.2 6.0 SW 13.4 SW 0.0 2.8
05:10 5.9 92.9 1015.2 6.0 WSW 12.0 SW 0.0 4.4
05:15 5.8 93.6 1015.3 5.6 WSW 10.9 W 0.0 8.6
05:20 5.8 93.8 1015.3 6.5 SW 14.1 SW 0.0 15.4
05:25 5.9 91.3 1015.3 6.6 SW 13.1 SSW 0.0 16.1
05:30 5.9 88.7 1015.3 7.1 SW 14.8 SW 0.0 33.8
05:35 6.0 87.7 1015.1 6.5 SW 12.4 SW 0.0 52.9
05:40 6.2 86.7 1015.1 6.6 SW 13.8 WSW 0.0 67.3
05:45 6.4 84.7 1015.0 6.3 SW 12.7 SSW 0.0 85.7
05:50 6.6 83.2 1015.0 5.0 SW 10.9 SSW 0.0 105.3
05:55 6.7 82.3 1015.1 5.0 SW 10.2 WSW 0.0 118.6
06:00 6.9 81.5 1015.1 5.0 WSW 9.9 SW 0.0 130.3
06:05 7.1 81.2 1015.1 5.6 SW 12.7 SW 0.0 135.6
06:10 7.3 79.9 1015.1 6.3 SW 11.6 SSW 0.0 140.2
06:15 7.4 78.9 1015.1 4.7 SW 9.5 W 0.0 115.3
06:20 7.3 79.3 1015.1 5.0 SW 12.0 SW 0.0 114.0
06:25 7.3 79.0 1015.2 5.4 SW 10.6 SW 0.0 165.9
06:30 7.6 78.5 1015.2 4.0 SW 10.2 SSW 0.0 203.3
06:35 7.9 77.0 1015.1 5.3 SW 11.3 SSW 0.0 221.9
06:40 8.2 75.9 1015.1 4.3 SW 9.9 SSW 0.0 228.6
06:45 8.4 74.3 1015.0 5.8 SW 10.6 S 0.0 254.7
06:50 8.5 74.0 1015.0 4.7 SW 10.2 SW 0.0 272.2
06:55 8.7 74.9 1015.0 4.8 SSW 10.9 SSW 0.0 288.4
07:00 9.1 75.6 1015.0 4.8 SSW 10.2 WSW 0.0 306.4
07:05 9.4 77.2 1014.9 4.5 SW 12.4 SW 0.0 323.7
07:10 9.7 74.5 1014.9 4.8 SW 12.7 SSW 0.0 341.3
07:15 9.4 73.6 1014.9 4.4 SW 9.9 SSW 0.0 358.9
07:20 9.1 72.9 1014.9 6.1 SW 13.4 SSW 0.0 375.2
07:25 9.0 75.4 1014.9 4.2 SSW 11.3 W 0.0 393.3
07:30 9.8 74.7 1014.9 2.6 SSE 10.2 SSW 0.0 409.5
07:35 10.7 71.1 1014.7 6.5 ENE 13.1 E 0.0 427.0
07:40 10.9 70.5 1014.7 5.7 ENE 11.3 ENE 0.0 450.1
07:45 10.5 70.0 1014.8 7.3 NE 11.3 ENE 0.0 308.1
07:50 10.0 72.8 1014.8 5.6 ENE 10.9 NE 0.0 354.2
07:55 10.3 71.0 1015.0 3.7 NE 8.8 NNE 0.0 285.2
08:00 9.7 73.0 1015.0 3.4 ENE 8.1 ENE 0.0 373.4
08:05 9.6 74.5 1014.9 4.9 ENE 10.2 ENE 0.0 447.5
08:10 9.8 72.7 1014.9 3.4 NE 6.7 NNE 0.0 385.0
08:15 10.0 71.9 1014.8 4.5 N 9.2 NW 0.0 381.5
08:20 9.5 72.3 1014.8 2.3 NW 7.8 WNW 0.0 354.1
08:25 9.6 72.4 1014.9 3.8 WNW 9.2 W 0.0 527.6
08:30 9.5 72.4 1014.9 4.2 WSW 11.6 WNW 0.0 650.1
08:35 10.0 71.5 1014.9 6.1 WNW 16.9 W 0.0 636.1
08:40 10.2 69.9 1014.9 5.6 WNW 16.6 W 0.0 679.8
08:45 10.4 69.4 1014.9 6.1 WNW 10.2 WSW 0.0 680.0
08:50 10.1 70.1 1014.9 5.3 WNW 12.0 WNW 0.0 670.8
08:55 10.1 70.5 1014.8 5.4 W 12.7 W 0.0 680.1
09:00 10.7 69.2 1014.8 6.1 SSW 12.0 S 0.0 692.7
09:05 10.9 68.9 1014.8 4.1 ENE 8.1 SE 0.0 710.1
09:10 11.5 68.3 1014.8 5.9 NE 12.0 ENE 0.0 728.2
09:15 11.5 67.1 1014.9 3.5 NW 12.0 WNW 0.0 731.4
09:20 11.6 66.4 1014.9 3.7 WSW 7.8 W 0.0 733.7
09:25 11.3 67.4 1014.9 2.1 W 6.4 W 0.0 383.0
09:30 11.1 68.5 1014.9 2.3 WNW 7.8 WNW 0.0 356.5
09:35 11.3 68.2 1014.9 2.5 W 7.4 NNW 0.0 341.2
09:40 11.2 68.1 1014.9 3.6 W 8.1 WNW 0.0 222.1
09:45 10.9 69.8 1015.0 3.5 W 7.4 WNW 0.0 445.9
09:50 10.8 70.2 1015.0 3.8 W 10.2 W 0.0 305.2
09:55 10.9 70.3 1014.9 1.6 WNW 5.6 NW 0.0 469.9
10:00 11.5 68.8 1014.9 3.4 NNW 9.9 NNW 0.0 515.6
10:05 11.6 67.6 1014.9 3.0 N 7.4 N 0.0 304.8
10:10 11.4 68.3 1014.9 1.1 N 6.0 N 0.0 263.3
10:15 11.6 69.8 1014.9 1.8 N 6.0 NNW 0.0 399.5
10:20 12.2 69.5 1014.9 2.8 N 7.1 N 0.0 646.4
10:25 12.4 69.5 1014.9 2.7 NNE 6.7 ENE 0.0 304.6
10:30 12.0 70.8 1014.9 2.3 N 5.6 N 0.0 351.4
10:35 11.9 70.9 1014.9 4.6 NNE 10.9 NE 0.0 410.1
10:40 11.7 72.2 1014.9 4.9 ENE 11.6 E 0.0 320.7
10:45 11.6 72.8 1014.9 5.3 E 13.4 ESE 0.0 276.8
10:50 11.3 74.1 1014.9 7.2 ENE 14.1 ESE 0.0 256.1
10:55 10.8 76.9 1014.8 6.1 E 15.2 E 0.0 278.7
11:00 10.8 77.5 1014.8 6.5 E 14.8 ESE 0.0 545.0
11:05 11.5 76.0 1014.8 7.7 E 17.3 NE 0.0 402.4
11:10 11.2 76.2 1014.8 6.7 ENE 14.1 ENE 0.0 349.5
11:15 11.4 77.1 1014.6 6.9 E 16.6 E 0.0 321.1
11:20 11.4 76.3 1014.6 6.0 E 15.2 E 0.0 356.2
11:25 11.0 77.7 1014.5 6.1 E 13.8 E 0.0 232.5
11:30 11.0 79.3 1014.5 8.0 E 21.2 E 0.0 429.3
11:35 11.1 78.4 1014.5 8.8 ENE 16.2 ENE 0.0 369.3
11:40 11.0 79.7 1014.5 9.0 E 16.2 E 0.0 452.4
11:45 11.5 78.2 1014.4 7.2 E 13.1 NE 0.0 558.5
11:50 11.7 77.0 1014.4 6.2 E 12.7 ESE 0.0 403.3
11:55 11.6 78.0 1014.3 7.7 E 14.5 ESE 0.0 753.1
12:00 12.2 76.4 1014.3 8.4 E 18.0 ENE 0.0 580.7
12:05 12.0 76.4 1014.1 9.1 E 17.6 ENE 0.0 410.7
12:10 11.4 79.1 1014.1 8.3 E 15.9 ENE 0.0 279.5
12:15 11.3 79.9 1014.1 7.7 E 13.8 E 0.0 348.6
12:20 11.4 80.2 1014.1 8.1 E 14.8 ENE 0.0 442.8
12:25 11.9 78.9 1014.0 7.8 E 15.5 NE 0.0 595.3
12:30 12.3 76.5 1014.0 7.1 E 15.2 ESE 0.0 471.0
12:35 11.9 77.7 1013.9 9.1 ESE 18.4 E 0.0 401.3
12:40 12.2 78.4 1013.9 8.3 E 17.3 ESE 0.0 996.0
12:45 12.6 75.3 1013.9 8.8 E 17.3 E 0.0 322.0
12:50 12.0 78.4 1013.9 9.0 E 18.0 E 0.0 558.1
12:55 12.0 78.1 1013.9 8.7 E 16.6 NE 0.0 404.7
13:00 11.6 79.6 1013.9 9.2 E 21.5 E 0.0 338.3
13:05 11.3 81.3 1013.8 10.1 E 18.7 ESE 0.0 332.9
13:10 12.0 80.5 1013.8 9.2 E 20.5 E 0.0 719.6
13:15 12.5 77.7 1013.7 9.5 E 21.2 E 0.0 318.2
13:20 11.3 83.2 1013.7 8.5 E 18.0 E 0.0 203.7
13:25 10.7 86.2 1013.7 10.3 E 18.7 E 0.0 169.5
13:30 10.6 87.4 1013.7 8.0 E 16.9 E 0.0 167.9
13:35 10.7 87.3 1013.7 8.6 E 16.9 E 0.0 152.4
13:40 10.5 88.2 1013.7 10.4 E 18.0 E 0.0 176.8
13:45 10.5 88.7 1013.5 10.0 E 22.9 ESE 0.0 291.2
13:50 10.6 88.2 1013.5 9.9 E 16.6 E 0.0 224.8
13:55 10.6 88.1 1013.3 9.2 E 19.1 E 0.0 253.8
14:00 10.4 89.0 1013.3 9.1 E 15.9 E 0.0 259.0
14:05 10.6 87.9 1013.3 9.4 E 17.3 E 0.0 311.6
14:10 10.8 87.1 1013.3 10.1 ESE 21.5 ESE 0.0 172.2
14:15 10.5 88.1 1013.2 10.8 E 20.8 ESE 0.0 183.7
14:20 10.4 89.7 1013.2 11.0 ESE 17.6 E 0.0 214.4
14:25 10.2 90.2 1013.2 9.4 ESE 18.0 E 0.0 146.4
14:30 9.9 91.4 1013.2 9.5 E 19.4 E 0.0 171.7
14:35 9.8 92.6 1013.1 9.8 E 18.4 ESE 0.0 164.5
14:40 9.8 92.7 1013.1 12.0 ESE 20.5 E 0.0 192.9
14:45 9.8 92.8 1013.0 9.3 E 17.6 E 0.0 127.4
14:50 9.5 93.9 1013.0 10.5 E 18.7 E 0.0 167.9
14:55 9.5 94.5 1013.0 12.3 ESE 22.9 ESE 0.0 187.9
15:00 9.4 94.1 1013.0 12.5 ESE 23.6 ESE 0.0 147.1
15:05 9.3 95.0 1012.9 13.1 ESE 25.4 ESE 0.0 142.8
15:10 9.3 95.4 1012.9 12.8 ESE 24.3 E 0.0 160.3
15:15 9.3 95.6 1012.9 12.1 ESE 21.5 ESE 0.0 133.5
15:20 9.2 95.6 1012.9 11.9 ESE 21.2 E 0.0 114.0
15:25 9.0 96.2 1012.8 11.2 ESE 19.1 E 0.0 121.9
15:30 9.0 96.6 1012.8 11.4 ESE 20.8 ESE 0.0 116.8
15:35 8.9 96.8 1012.7 13.0 ESE 21.5 ESE 0.0 94.0
15:40 8.8 96.9 1012.7 13.7 ESE 27.2 ESE 0.0 105.9
15:45 8.7 97.1 1012.6 14.3 ESE 26.5 E 0.0 88.4
15:50 8.6 97.3 1012.6 12.8 ESE 22.2 E 0.0 79.9
15:55 8.6 97.5 1012.5 12.7 ESE 23.3 E 0.0 78.8
16:00 8.6 97.5 1012.5 11.0 ESE 19.4 ESE 0.0 70.2
16:05 8.5 97.6 1012.5 11.4 E 20.5 E 0.0 51.8
16:10 8.5 97.6 1012.5 10.5 ESE 18.4 ENE 0.0 40.1
16:15 8.4 97.7 1012.6 11.6 ESE 20.1 E 0.0 46.5
16:20 8.4 97.8 1012.6 11.2 ESE 19.4 ESE 0.0 59.6
Màxima 13.2 97.8 1017.6 14.3 ESE 27.2 ESE 0.0 996.0
Mínima 5.7 66.4 1012.5
Total 0.0